sensor_id;sensor_type;location;lat;lon;timestamp;temperature;humidity
75615;DHT22;64199;48.578;-4.520;2022-10-19T00:00:26;22.20;71.00
75615;DHT22;64199;48.578;-4.520;2022-10-19T00:02:52;22.20;71.00
75615;DHT22;64199;48.578;-4.520;2022-10-19T00:05:18;22.20;71.00
75615;DHT22;64199;48.578;-4.520;2022-10-19T00:07:44;22.20;71.00
75615;DHT22;64199;48.578;-4.520;2022-10-19T00:10:10;22.20;71.00
75615;DHT22;64199;48.578;-4.520;2022-10-19T00:12:37;22.20;71.00
75615;DHT22;64199;48.578;-4.520;2022-10-19T00:15:04;22.20;71.00
75615;DHT22;64199;48.578;-4.520;2022-10-19T00:17:30;22.20;71.10
75615;DHT22;64199;48.578;-4.520;2022-10-19T00:19:56;22.20;71.10
75615;DHT22;64199;48.578;-4.520;2022-10-19T00:22:22;22.20;71.10
75615;DHT22;64199;48.578;-4.520;2022-10-19T00:24:48;22.10;71.10
75615;DHT22;64199;48.578;-4.520;2022-10-19T00:27:14;22.20;71.20
75615;DHT22;64199;48.578;-4.520;2022-10-19T00:29:40;22.20;71.20
75615;DHT22;64199;48.578;-4.520;2022-10-19T00:32:05;22.20;71.20
75615;DHT22;64199;48.578;-4.520;2022-10-19T00:34:31;22.20;71.20
75615;DHT22;64199;48.578;-4.520;2022-10-19T00:36:57;22.20;71.20
75615;DHT22;64199;48.578;-4.520;2022-10-19T00:39:23;22.20;71.20
75615;DHT22;64199;48.578;-4.520;2022-10-19T00:41:49;22.20;71.30
75615;DHT22;64199;48.578;-4.520;2022-10-19T00:46:43;22.20;71.20
75615;DHT22;64199;48.578;-4.520;2022-10-19T00:49:16;22.20;71.30
75615;DHT22;64199;48.578;-4.520;2022-10-19T00:51:52;22.20;71.20
75615;DHT22;64199;48.578;-4.520;2022-10-19T00:54:19;22.20;71.30
75615;DHT22;64199;48.578;-4.520;2022-10-19T00:56:49;22.20;71.20
75615;DHT22;64199;48.578;-4.520;2022-10-19T00:59:18;22.20;71.20
75615;DHT22;64199;48.578;-4.520;2022-10-19T01:01:46;22.20;71.30
75615;DHT22;64199;48.578;-4.520;2022-10-19T01:04:12;22.20;71.20
75615;DHT22;64199;48.578;-4.520;2022-10-19T01:06:39;22.20;71.30
75615;DHT22;64199;48.578;-4.520;2022-10-19T01:09:06;22.20;71.30
75615;DHT22;64199;48.578;-4.520;2022-10-19T01:33:37;22.10;71.40
75615;DHT22;64199;48.578;-4.520;2022-10-19T01:36:31;22.10;71.40
75615;DHT22;64199;48.578;-4.520;2022-10-19T01:42:41;22.10;71.50
75615;DHT22;64199;48.578;-4.520;2022-10-19T01:44:52;22.10;71.50
75615;DHT22;64199;48.578;-4.520;2022-10-19T01:47:40;22.10;71.50
75615;DHT22;64199;48.578;-4.520;2022-10-19T01:52:39;22.10;71.60
75615;DHT22;64199;48.578;-4.520;2022-10-19T01:55:08;22.10;71.60
75615;DHT22;64199;48.578;-4.520;2022-10-19T01:57:42;22.10;71.70
75615;DHT22;64199;48.578;-4.520;2022-10-19T02:00:11;22.10;71.70
75615;DHT22;64199;48.578;-4.520;2022-10-19T02:02:42;22.10;71.60
75615;DHT22;64199;48.578;-4.520;2022-10-19T02:05:10;22.10;71.60
75615;DHT22;64199;48.578;-4.520;2022-10-19T02:07:39;22.10;71.60
75615;DHT22;64199;48.578;-4.520;2022-10-19T02:10:06;22.10;71.60
75615;DHT22;64199;48.578;-4.520;2022-10-19T02:12:33;22.10;71.60
75615;DHT22;64199;48.578;-4.520;2022-10-19T02:15:08;22.10;71.60
75615;DHT22;64199;48.578;-4.520;2022-10-19T02:17:39;22.10;71.60
75615;DHT22;64199;48.578;-4.520;2022-10-19T02:20:07;22.10;71.60
75615;DHT22;64199;48.578;-4.520;2022-10-19T02:22:33;22.10;71.60
75615;DHT22;64199;48.578;-4.520;2022-10-19T02:24:59;22.10;71.60
75615;DHT22;64199;48.578;-4.520;2022-10-19T02:27:25;22.10;71.50
75615;DHT22;64199;48.578;-4.520;2022-10-19T02:29:52;22.10;71.60
75615;DHT22;64199;48.578;-4.520;2022-10-19T02:32:18;22.10;71.60
75615;DHT22;64199;48.578;-4.520;2022-10-19T02:34:44;22.10;71.60
75615;DHT22;64199;48.578;-4.520;2022-10-19T02:37:10;22.10;71.50
75615;DHT22;64199;48.578;-4.520;2022-10-19T02:39:37;22.10;71.60
75615;DHT22;64199;48.578;-4.520;2022-10-19T02:42:11;22.10;71.60
75615;DHT22;64199;48.578;-4.520;2022-10-19T02:44:45;22.10;71.70
75615;DHT22;64199;48.578;-4.520;2022-10-19T02:47:36;22.10;71.60
75615;DHT22;64199;48.578;-4.520;2022-10-19T02:50:03;22.00;71.60
75615;DHT22;64199;48.578;-4.520;2022-10-19T02:52:29;22.10;71.60
75615;DHT22;64199;48.578;-4.520;2022-10-19T02:54:55;22.00;71.60
75615;DHT22;64199;48.578;-4.520;2022-10-19T02:57:23;22.00;71.70
75615;DHT22;64199;48.578;-4.520;2022-10-19T02:59:50;22.00;71.70
75615;DHT22;64199;48.578;-4.520;2022-10-19T03:02:17;22.00;71.70
75615;DHT22;64199;48.578;-4.520;2022-10-19T03:04:43;22.00;71.70
75615;DHT22;64199;48.578;-4.520;2022-10-19T03:07:12;22.00;71.70
75615;DHT22;64199;48.578;-4.520;2022-10-19T03:09:42;22.00;71.70
75615;DHT22;64199;48.578;-4.520;2022-10-19T03:12:09;22.00;71.70
75615;DHT22;64199;48.578;-4.520;2022-10-19T03:14:35;22.00;71.70
75615;DHT22;64199;48.578;-4.520;2022-10-19T03:17:02;22.00;71.60
75615;DHT22;64199;48.578;-4.520;2022-10-19T03:19:28;22.00;71.50
75615;DHT22;64199;48.578;-4.520;2022-10-19T03:21:54;22.00;71.40
75615;DHT22;64199;48.578;-4.520;2022-10-19T03:24:20;22.00;71.50
75615;DHT22;64199;48.578;-4.520;2022-10-19T03:26:46;22.00;71.50
75615;DHT22;64199;48.578;-4.520;2022-10-19T03:29:11;22.00;71.60
75615;DHT22;64199;48.578;-4.520;2022-10-19T03:31:37;22.00;71.50
75615;DHT22;64199;48.578;-4.520;2022-10-19T03:34:03;22.00;71.50
75615;DHT22;64199;48.578;-4.520;2022-10-19T03:36:32;22.00;71.60
75615;DHT22;64199;48.578;-4.520;2022-10-19T03:39:05;22.00;71.60
75615;DHT22;64199;48.578;-4.520;2022-10-19T03:41:33;22.00;71.70
75615;DHT22;64199;48.578;-4.520;2022-10-19T03:43:59;22.00;72.50
75615;DHT22;64199;48.578;-4.520;2022-10-19T03:46:26;22.00;71.70
75615;DHT22;64199;48.578;-4.520;2022-10-19T03:48:52;22.00;71.70
75615;DHT22;64199;48.578;-4.520;2022-10-19T03:51:24;22.00;71.80
75615;DHT22;64199;48.578;-4.520;2022-10-19T03:54:06;22.00;71.80
75615;DHT22;64199;48.578;-4.520;2022-10-19T03:56:34;22.00;71.90
75615;DHT22;64199;48.578;-4.520;2022-10-19T03:59:01;21.90;71.80
75615;DHT22;64199;48.578;-4.520;2022-10-19T04:01:38;22.00;71.80
75615;DHT22;64199;48.578;-4.520;2022-10-19T04:04:13;21.90;71.80
75615;DHT22;64199;48.578;-4.520;2022-10-19T04:06:41;21.90;71.80
75615;DHT22;64199;48.578;-4.520;2022-10-19T04:09:10;21.90;71.90
75615;DHT22;64199;48.578;-4.520;2022-10-19T04:11:36;21.90;71.90
75615;DHT22;64199;48.578;-4.520;2022-10-19T04:14:03;21.90;71.80
75615;DHT22;64199;48.578;-4.520;2022-10-19T04:16:30;21.90;71.80
75615;DHT22;64199;48.578;-4.520;2022-10-19T04:18:57;21.90;72.00
75615;DHT22;64199;48.578;-4.520;2022-10-19T04:21:32;21.90;71.90
75615;DHT22;64199;48.578;-4.520;2022-10-19T04:24:04;21.90;71.90
75615;DHT22;64199;48.578;-4.520;2022-10-19T04:26:31;21.90;72.00
75615;DHT22;64199;48.578;-4.520;2022-10-19T04:28:58;21.90;72.00
75615;DHT22;64199;48.578;-4.520;2022-10-19T04:31:25;21.90;72.00
75615;DHT22;64199;48.578;-4.520;2022-10-19T04:33:52;21.90;72.00
75615;DHT22;64199;48.578;-4.520;2022-10-19T04:36:17;21.90;72.00
75615;DHT22;64199;48.578;-4.520;2022-10-19T04:38:43;21.90;72.00
75615;DHT22;64199;48.578;-4.520;2022-10-19T04:41:15;21.90;72.00
75615;DHT22;64199;48.578;-4.520;2022-10-19T04:43:41;21.90;72.00
75615;DHT22;64199;48.578;-4.520;2022-10-19T04:46:16;21.90;72.00
75615;DHT22;64199;48.578;-4.520;2022-10-19T04:48:44;21.90;72.00
75615;DHT22;64199;48.578;-4.520;2022-10-19T04:51:11;21.90;72.10
75615;DHT22;64199;48.578;-4.520;2022-10-19T04:53:38;21.80;72.00
75615;DHT22;64199;48.578;-4.520;2022-10-19T04:56:17;21.90;72.00
75615;DHT22;64199;48.578;-4.520;2022-10-19T04:58:43;21.90;72.10
75615;DHT22;64199;48.578;-4.520;2022-10-19T05:01:15;21.90;72.10
75615;DHT22;64199;48.578;-4.520;2022-10-19T05:03:42;21.90;72.10
75615;DHT22;64199;48.578;-4.520;2022-10-19T05:06:09;21.80;72.00
75615;DHT22;64199;48.578;-4.520;2022-10-19T05:08:36;21.80;72.00
75615;DHT22;64199;48.578;-4.520;2022-10-19T05:11:11;21.80;72.00
75615;DHT22;64199;48.578;-4.520;2022-10-19T05:13:39;21.90;72.00
75615;DHT22;64199;48.578;-4.520;2022-10-19T05:16:06;21.80;72.00
75615;DHT22;64199;48.578;-4.520;2022-10-19T05:18:34;21.90;72.10
75615;DHT22;64199;48.578;-4.520;2022-10-19T05:21:09;21.80;71.90
75615;DHT22;64199;48.578;-4.520;2022-10-19T05:23:35;21.80;72.00
75615;DHT22;64199;48.578;-4.520;2022-10-19T05:26:08;21.80;71.90
75615;DHT22;64199;48.578;-4.520;2022-10-19T05:28:34;21.80;71.90
75615;DHT22;64199;48.578;-4.520;2022-10-19T05:31:12;21.80;72.00
75615;DHT22;64199;48.578;-4.520;2022-10-19T05:33:38;21.80;72.00
75615;DHT22;64199;48.578;-4.520;2022-10-19T05:36:11;21.80;71.90
75615;DHT22;64199;48.578;-4.520;2022-10-19T05:38:37;21.80;71.90
75615;DHT22;64199;48.578;-4.520;2022-10-19T05:41:03;21.80;71.90
75615;DHT22;64199;48.578;-4.520;2022-10-19T05:43:29;21.80;72.00
75615;DHT22;64199;48.578;-4.520;2022-10-19T05:45:55;21.80;71.90
75615;DHT22;64199;48.578;-4.520;2022-10-19T05:48:21;21.80;72.00
75615;DHT22;64199;48.578;-4.520;2022-10-19T05:50:53;21.80;71.90
75615;DHT22;64199;48.578;-4.520;2022-10-19T05:53:19;21.80;71.90
75615;DHT22;64199;48.578;-4.520;2022-10-19T05:55:45;21.80;71.90
75615;DHT22;64199;48.578;-4.520;2022-10-19T05:58:11;21.80;71.90
75615;DHT22;64199;48.578;-4.520;2022-10-19T06:00:37;21.80;71.80
75615;DHT22;64199;48.578;-4.520;2022-10-19T06:03:03;21.80;71.80
75615;DHT22;64199;48.578;-4.520;2022-10-19T06:05:29;21.80;71.90
75615;DHT22;64199;48.578;-4.520;2022-10-19T06:07:54;21.80;71.80
75615;DHT22;64199;48.578;-4.520;2022-10-19T06:10:20;21.80;71.90
75615;DHT22;64199;48.578;-4.520;2022-10-19T06:12:46;21.80;71.90
75615;DHT22;64199;48.578;-4.520;2022-10-19T06:15:12;21.80;72.00
75615;DHT22;64199;48.578;-4.520;2022-10-19T06:17:38;21.80;71.90
75615;DHT22;64199;48.578;-4.520;2022-10-19T06:20:04;21.80;72.00
75615;DHT22;64199;48.578;-4.520;2022-10-19T06:22:30;21.80;72.00
75615;DHT22;64199;48.578;-4.520;2022-10-19T06:24:56;21.80;71.90
75615;DHT22;64199;48.578;-4.520;2022-10-19T06:27:22;21.80;71.90
75615;DHT22;64199;48.578;-4.520;2022-10-19T06:29:48;21.80;71.90
75615;DHT22;64199;48.578;-4.520;2022-10-19T06:32:14;21.80;71.90
75615;DHT22;64199;48.578;-4.520;2022-10-19T06:34:40;21.80;71.90
75615;DHT22;64199;48.578;-4.520;2022-10-19T06:37:06;21.70;71.90
75615;DHT22;64199;48.578;-4.520;2022-10-19T06:39:31;21.70;71.90
75615;DHT22;64199;48.578;-4.520;2022-10-19T06:41:57;21.80;71.90
75615;DHT22;64199;48.578;-4.520;2022-10-19T06:44:23;21.70;71.90
75615;DHT22;64199;48.578;-4.520;2022-10-19T06:46:49;21.70;71.90
75615;DHT22;64199;48.578;-4.520;2022-10-19T06:49:15;21.70;71.90
75615;DHT22;64199;48.578;-4.520;2022-10-19T06:51:41;21.70;71.90
75615;DHT22;64199;48.578;-4.520;2022-10-19T06:54:08;21.80;72.00
75615;DHT22;64199;48.578;-4.520;2022-10-19T06:56:34;21.70;71.90
75615;DHT22;64199;48.578;-4.520;2022-10-19T06:59:00;21.70;71.90
75615;DHT22;64199;48.578;-4.520;2022-10-19T07:01:26;21.70;71.90
75615;DHT22;64199;48.578;-4.520;2022-10-19T07:03:52;21.70;72.00
75615;DHT22;64199;48.578;-4.520;2022-10-19T07:06:18;21.70;71.90
75615;DHT22;64199;48.578;-4.520;2022-10-19T07:08:44;21.70;71.90
75615;DHT22;64199;48.578;-4.520;2022-10-19T07:11:16;21.70;71.90
75615;DHT22;64199;48.578;-4.520;2022-10-19T07:13:42;21.70;71.90
75615;DHT22;64199;48.578;-4.520;2022-10-19T07:16:10;21.70;71.90
75615;DHT22;64199;48.578;-4.520;2022-10-19T07:18:38;21.70;71.90
75615;DHT22;64199;48.578;-4.520;2022-10-19T07:21:07;21.70;71.90
75615;DHT22;64199;48.578;-4.520;2022-10-19T07:23:34;21.70;71.90
75615;DHT22;64199;48.578;-4.520;2022-10-19T07:26:15;21.70;71.90
75615;DHT22;64199;48.578;-4.520;2022-10-19T07:28:44;21.70;71.90
75615;DHT22;64199;48.578;-4.520;2022-10-19T07:31:13;21.70;71.90
75615;DHT22;64199;48.578;-4.520;2022-10-19T07:33:39;21.70;71.80
75615;DHT22;64199;48.578;-4.520;2022-10-19T07:36:07;21.70;71.80
75615;DHT22;64199;48.578;-4.520;2022-10-19T07:38:34;21.70;71.70
75615;DHT22;64199;48.578;-4.520;2022-10-19T07:43:33;21.70;71.80
75615;DHT22;64199;48.578;-4.520;2022-10-19T07:46:09;21.70;71.70
75615;DHT22;64199;48.578;-4.520;2022-10-19T07:48:35;21.70;71.80
75615;DHT22;64199;48.578;-4.520;2022-10-19T07:51:04;21.70;71.80
75615;DHT22;64199;48.578;-4.520;2022-10-19T07:53:30;21.70;71.80
75615;DHT22;64199;48.578;-4.520;2022-10-19T07:56:11;21.70;71.80
75615;DHT22;64199;48.578;-4.520;2022-10-19T07:58:38;21.70;71.80
75615;DHT22;64199;48.578;-4.520;2022-10-19T08:01:13;21.70;71.80
75615;DHT22;64199;48.578;-4.520;2022-10-19T08:03:40;21.70;71.80
75615;DHT22;64199;48.578;-4.520;2022-10-19T08:06:08;21.70;71.80
75615;DHT22;64199;48.578;-4.520;2022-10-19T08:08:34;21.70;71.90
75615;DHT22;64199;48.578;-4.520;2022-10-19T08:11:12;21.70;71.90
75615;DHT22;64199;48.578;-4.520;2022-10-19T08:13:38;21.70;71.90
75615;DHT22;64199;48.578;-4.520;2022-10-19T08:16:05;21.70;72.00
75615;DHT22;64199;48.578;-4.520;2022-10-19T08:18:31;21.70;72.00
75615;DHT22;64199;48.578;-4.520;2022-10-19T08:20:57;21.70;72.00
75615;DHT22;64199;48.578;-4.520;2022-10-19T08:23:26;21.70;71.90
75615;DHT22;64199;48.578;-4.520;2022-10-19T08:25:56;21.70;72.00
75615;DHT22;64199;48.578;-4.520;2022-10-19T08:28:23;21.70;72.00
75615;DHT22;64199;48.578;-4.520;2022-10-19T08:30:49;21.70;72.00
75615;DHT22;64199;48.578;-4.520;2022-10-19T08:33:15;21.70;72.00
75615;DHT22;64199;48.578;-4.520;2022-10-19T08:35:40;21.70;72.00
75615;DHT22;64199;48.578;-4.520;2022-10-19T08:38:06;21.90;71.80
75615;DHT22;64199;48.578;-4.520;2022-10-19T08:40:32;22.00;71.40
75615;DHT22;64199;48.578;-4.520;2022-10-19T08:43:24;22.10;71.20
75615;DHT22;64199;48.578;-4.520;2022-10-19T08:46:17;22.10;71.10
75615;DHT22;64199;48.578;-4.520;2022-10-19T08:48:45;22.10;71.00
75615;DHT22;64199;48.578;-4.520;2022-10-19T08:51:12;22.20;70.90
75615;DHT22;64199;48.578;-4.520;2022-10-19T08:53:58;22.20;70.80
75615;DHT22;64199;48.578;-4.520;2022-10-19T08:56:36;22.30;70.90
75615;DHT22;64199;48.578;-4.520;2022-10-19T09:09:55;22.30;70.90
75615;DHT22;64199;48.578;-4.520;2022-10-19T09:15:19;22.30;71.00
75615;DHT22;64199;48.578;-4.520;2022-10-19T09:17:46;22.30;71.00
75615;DHT22;64199;48.578;-4.520;2022-10-19T09:20:19;22.30;71.00
75615;DHT22;64199;48.578;-4.520;2022-10-19T09:22:52;22.30;71.00
75615;DHT22;64199;48.578;-4.520;2022-10-19T09:25:22;22.30;70.80
75615;DHT22;64199;48.578;-4.520;2022-10-19T09:28:19;22.30;70.80
75615;DHT22;64199;48.578;-4.520;2022-10-19T09:30:47;22.30;70.70
75615;DHT22;64199;48.578;-4.520;2022-10-19T09:33:25;22.30;70.60
75615;DHT22;64199;48.578;-4.520;2022-10-19T09:35:54;22.40;70.70
75615;DHT22;64199;48.578;-4.520;2022-10-19T09:38:23;22.30;70.60
75615;DHT22;64199;48.578;-4.520;2022-10-19T09:40:50;22.40;70.60
75615;DHT22;64199;48.578;-4.520;2022-10-19T09:43:16;22.40;70.60
75615;DHT22;64199;48.578;-4.520;2022-10-19T09:46:04;22.30;70.60
75615;DHT22;64199;48.578;-4.520;2022-10-19T09:51:13;22.40;70.60
75615;DHT22;64199;48.578;-4.520;2022-10-19T09:53:50;22.40;70.60
75615;DHT22;64199;48.578;-4.520;2022-10-19T09:58:55;22.40;70.60
75615;DHT22;64199;48.578;-4.520;2022-10-19T10:01:33;22.40;70.60
75615;DHT22;64199;48.578;-4.520;2022-10-19T10:04:13;22.40;70.60
75615;DHT22;64199;48.578;-4.520;2022-10-19T10:06:40;22.40;70.60
75615;DHT22;64199;48.578;-4.520;2022-10-19T10:09:17;22.40;70.60
75615;DHT22;64199;48.578;-4.520;2022-10-19T10:11:47;22.40;70.60
75615;DHT22;64199;48.578;-4.520;2022-10-19T10:14:28;22.40;70.50
75615;DHT22;64199;48.578;-4.520;2022-10-19T10:17:12;22.40;70.50
75615;DHT22;64199;48.578;-4.520;2022-10-19T10:22:35;22.40;70.50
75615;DHT22;64199;48.578;-4.520;2022-10-19T10:25:11;22.40;70.50
75615;DHT22;64199;48.578;-4.520;2022-10-19T10:27:38;22.40;70.60
75615;DHT22;64199;48.578;-4.520;2022-10-19T10:30:07;22.40;70.60
75615;DHT22;64199;48.578;-4.520;2022-10-19T10:32:37;22.40;70.60
75615;DHT22;64199;48.578;-4.520;2022-10-19T10:35:13;22.40;70.80
75615;DHT22;64199;48.578;-4.520;2022-10-19T10:37:45;22.40;70.70
75615;DHT22;64199;48.578;-4.520;2022-10-19T10:40:25;22.40;70.60
75615;DHT22;64199;48.578;-4.520;2022-10-19T10:42:55;22.40;70.60
75615;DHT22;64199;48.578;-4.520;2022-10-19T10:45:58;22.40;70.50
75615;DHT22;64199;48.578;-4.520;2022-10-19T10:48:27;22.40;70.60
75615;DHT22;64199;48.578;-4.520;2022-10-19T10:50:54;22.40;70.60
75615;DHT22;64199;48.578;-4.520;2022-10-19T10:53:38;22.50;70.70
75615;DHT22;64199;48.578;-4.520;2022-10-19T10:56:11;22.50;70.70
75615;DHT22;64199;48.578;-4.520;2022-10-19T10:58:59;22.50;70.80
75615;DHT22;64199;48.578;-4.520;2022-10-19T11:01:34;22.50;70.80
75615;DHT22;64199;48.578;-4.520;2022-10-19T11:04:13;22.50;70.80
75615;DHT22;64199;48.578;-4.520;2022-10-19T11:06:45;22.40;70.90
75615;DHT22;64199;48.578;-4.520;2022-10-19T11:09:26;22.50;70.90
75615;DHT22;64199;48.578;-4.520;2022-10-19T11:11:56;22.50;70.90
75615;DHT22;64199;48.578;-4.520;2022-10-19T11:17:06;22.50;71.10
75615;DHT22;64199;48.578;-4.520;2022-10-19T11:19:41;22.50;71.10
75615;DHT22;64199;48.578;-4.520;2022-10-19T11:22:37;22.50;71.00
75615;DHT22;64199;48.578;-4.520;2022-10-19T11:28:32;22.60;71.00
75615;DHT22;64199;48.578;-4.520;2022-10-19T11:31:19;22.60;71.00
75615;DHT22;64199;48.578;-4.520;2022-10-19T11:33:58;22.60;71.00
75615;DHT22;64199;48.578;-4.520;2022-10-19T11:36:55;22.60;71.10
75615;DHT22;64199;48.578;-4.520;2022-10-19T11:50:08;22.60;71.00
75615;DHT22;64199;48.578;-4.520;2022-10-19T12:06:57;22.70;71.10
75615;DHT22;64199;48.578;-4.520;2022-10-19T12:12:27;22.70;71.00
75615;DHT22;64199;48.578;-4.520;2022-10-19T12:15:17;22.70;71.00
75615;DHT22;64199;48.578;-4.520;2022-10-19T12:17:47;22.70;71.00
75615;DHT22;64199;48.578;-4.520;2022-10-19T12:20:34;22.70;71.10
75615;DHT22;64199;48.578;-4.520;2022-10-19T12:23:20;22.70;71.20
75615;DHT22;64199;48.578;-4.520;2022-10-19T12:25:48;22.70;71.10
75615;DHT22;64199;48.578;-4.520;2022-10-19T12:28:26;22.70;71.00
75615;DHT22;64199;48.578;-4.520;2022-10-19T12:30:52;22.80;71.00
75615;DHT22;64199;48.578;-4.520;2022-10-19T12:45:08;22.70;70.80
75615;DHT22;64199;48.578;-4.520;2022-10-19T12:47:38;22.80;70.90
75615;DHT22;64199;48.578;-4.520;2022-10-19T12:50:04;22.80;70.90
75615;DHT22;64199;48.578;-4.520;2022-10-19T12:52:44;22.80;70.90
75615;DHT22;64199;48.578;-4.520;2022-10-19T12:58:05;22.80;70.80
75615;DHT22;64199;48.578;-4.520;2022-10-19T13:00:40;22.70;70.60
75615;DHT22;64199;48.578;-4.520;2022-10-19T13:03:14;22.80;70.80
75615;DHT22;64199;48.578;-4.520;2022-10-19T13:05:40;22.70;70.70
75615;DHT22;64199;48.578;-4.520;2022-10-19T13:08:07;22.70;70.70
75615;DHT22;64199;48.578;-4.520;2022-10-19T13:10:33;22.70;70.60
75615;DHT22;64199;48.578;-4.520;2022-10-19T13:13:00;22.70;70.40
75615;DHT22;64199;48.578;-4.520;2022-10-19T13:18:09;22.70;71.20
75615;DHT22;64199;48.578;-4.520;2022-10-19T13:25:32;22.70;70.10
75615;DHT22;64199;48.578;-4.520;2022-10-19T13:41:21;22.70;70.30
75615;DHT22;64199;48.578;-4.520;2022-10-19T13:44:31;22.70;70.30
75615;DHT22;64199;48.578;-4.520;2022-10-19T13:58:09;22.60;70.30
75615;DHT22;64199;48.578;-4.520;2022-10-19T14:06:43;22.50;70.30
75615;DHT22;64199;48.578;-4.520;2022-10-19T14:09:38;22.50;70.30
75615;DHT22;64199;48.578;-4.520;2022-10-19T14:12:24;22.50;70.30
75615;DHT22;64199;48.578;-4.520;2022-10-19T14:14:50;22.50;70.30
75615;DHT22;64199;48.578;-4.520;2022-10-19T14:17:28;22.50;70.30
75615;DHT22;64199;48.578;-4.520;2022-10-19T14:19:58;22.50;70.30
75615;DHT22;64199;48.578;-4.520;2022-10-19T14:22:30;22.50;70.20
75615;DHT22;64199;48.578;-4.520;2022-10-19T14:27:38;22.50;70.40
75615;DHT22;64199;48.578;-4.520;2022-10-19T14:30:04;22.50;70.20
75615;DHT22;64199;48.578;-4.520;2022-10-19T14:32:32;22.50;70.20
75615;DHT22;64199;48.578;-4.520;2022-10-19T14:35:03;22.50;70.20
75615;DHT22;64199;48.578;-4.520;2022-10-19T14:37:29;22.50;70.20
75615;DHT22;64199;48.578;-4.520;2022-10-19T14:40:05;22.50;70.20
75615;DHT22;64199;48.578;-4.520;2022-10-19T14:42:42;22.50;70.10
75615;DHT22;64199;48.578;-4.520;2022-10-19T14:45:19;22.50;70.10
75615;DHT22;64199;48.578;-4.520;2022-10-19T14:48:04;22.50;70.10
75615;DHT22;64199;48.578;-4.520;2022-10-19T14:50:48;22.50;70.20
75615;DHT22;64199;48.578;-4.520;2022-10-19T14:53:34;22.40;69.90
75615;DHT22;64199;48.578;-4.520;2022-10-19T14:56:16;22.40;70.10
75615;DHT22;64199;48.578;-4.520;2022-10-19T14:58:50;22.40;70.40
75615;DHT22;64199;48.578;-4.520;2022-10-19T15:01:17;22.40;70.50
75615;DHT22;64199;48.578;-4.520;2022-10-19T15:03:44;22.50;70.50
75615;DHT22;64199;48.578;-4.520;2022-10-19T15:06:22;22.40;70.20
75615;DHT22;64199;48.578;-4.520;2022-10-19T15:09:01;22.50;70.20
75615;DHT22;64199;48.578;-4.520;2022-10-19T15:11:30;22.40;70.00
75615;DHT22;64199;48.578;-4.520;2022-10-19T15:14:23;22.40;70.00
75615;DHT22;64199;48.578;-4.520;2022-10-19T15:16:57;22.40;70.00
75615;DHT22;64199;48.578;-4.520;2022-10-19T15:19:40;22.40;70.00
75615;DHT22;64199;48.578;-4.520;2022-10-19T15:25:23;22.40;70.10
75615;DHT22;64199;48.578;-4.520;2022-10-19T15:27:49;22.40;70.10
75615;DHT22;64199;48.578;-4.520;2022-10-19T15:32:55;22.40;70.20
75615;DHT22;64199;48.578;-4.520;2022-10-19T15:35:28;22.40;70.20
75615;DHT22;64199;48.578;-4.520;2022-10-19T15:38:44;22.40;70.20
75615;DHT22;64199;48.578;-4.520;2022-10-19T15:40:58;22.40;70.10
75615;DHT22;64199;48.578;-4.520;2022-10-19T15:46:00;22.40;70.10
75615;DHT22;64199;48.578;-4.520;2022-10-19T15:48:28;22.40;70.20
75615;DHT22;64199;48.578;-4.520;2022-10-19T15:51:40;22.30;70.20
75615;DHT22;64199;48.578;-4.520;2022-10-19T15:54:07;22.30;70.20
75615;DHT22;64199;48.578;-4.520;2022-10-19T15:56:38;22.30;70.20
75615;DHT22;64199;48.578;-4.520;2022-10-19T15:59:15;22.30;70.20
75615;DHT22;64199;48.578;-4.520;2022-10-19T16:01:43;22.30;70.20
75615;DHT22;64199;48.578;-4.520;2022-10-19T16:04:09;22.30;70.20
75615;DHT22;64199;48.578;-4.520;2022-10-19T16:06:37;22.30;70.20
75615;DHT22;64199;48.578;-4.520;2022-10-19T16:09:03;22.30;70.20
75615;DHT22;64199;48.578;-4.520;2022-10-19T16:11:30;22.30;70.20
75615;DHT22;64199;48.578;-4.520;2022-10-19T16:13:58;22.30;70.20
75615;DHT22;64199;48.578;-4.520;2022-10-19T16:16:26;22.30;70.20
75615;DHT22;64199;48.578;-4.520;2022-10-19T16:18:52;22.30;70.30
75615;DHT22;64199;48.578;-4.520;2022-10-19T16:21:20;22.30;70.20
75615;DHT22;64199;48.578;-4.520;2022-10-19T16:23:46;22.20;70.30
75615;DHT22;64199;48.578;-4.520;2022-10-19T16:26:13;22.30;70.30
75615;DHT22;64199;48.578;-4.520;2022-10-19T16:28:39;22.20;70.20
75615;DHT22;64199;48.578;-4.520;2022-10-19T16:31:05;22.30;70.30
75615;DHT22;64199;48.578;-4.520;2022-10-19T16:33:31;22.20;70.30
75615;DHT22;64199;48.578;-4.520;2022-10-19T16:35:58;22.20;70.20
75615;DHT22;64199;48.578;-4.520;2022-10-19T16:38:24;22.20;70.20
75615;DHT22;64199;48.578;-4.520;2022-10-19T16:40:49;22.20;70.20
75615;DHT22;64199;48.578;-4.520;2022-10-19T16:43:15;22.30;70.20
75615;DHT22;64199;48.578;-4.520;2022-10-19T16:45:42;22.20;70.10
75615;DHT22;64199;48.578;-4.520;2022-10-19T16:48:10;22.20;70.20
75615;DHT22;64199;48.578;-4.520;2022-10-19T16:50:36;22.20;70.20
75615;DHT22;64199;48.578;-4.520;2022-10-19T16:53:07;22.20;70.10
75615;DHT22;64199;48.578;-4.520;2022-10-19T16:55:40;22.20;70.10
75615;DHT22;64199;48.578;-4.520;2022-10-19T16:58:06;22.20;70.20
75615;DHT22;64199;48.578;-4.520;2022-10-19T17:00:32;22.20;70.10
75615;DHT22;64199;48.578;-4.520;2022-10-19T17:02:59;22.20;70.20
75615;DHT22;64199;48.578;-4.520;2022-10-19T17:05:25;22.20;70.20
75615;DHT22;64199;48.578;-4.520;2022-10-19T17:07:51;22.20;70.10
75615;DHT22;64199;48.578;-4.520;2022-10-19T17:10:17;22.20;70.10
75615;DHT22;64199;48.578;-4.520;2022-10-19T17:12:43;22.20;70.20
75615;DHT22;64199;48.578;-4.520;2022-10-19T17:15:09;22.20;70.10
75615;DHT22;64199;48.578;-4.520;2022-10-19T17:17:35;22.20;70.20
75615;DHT22;64199;48.578;-4.520;2022-10-19T17:20:01;22.20;70.20
75615;DHT22;64199;48.578;-4.520;2022-10-19T17:22:27;22.20;70.10
75615;DHT22;64199;48.578;-4.520;2022-10-19T17:24:53;22.20;70.10
75615;DHT22;64199;48.578;-4.520;2022-10-19T17:27:20;22.10;69.90
75615;DHT22;64199;48.578;-4.520;2022-10-19T17:29:45;22.20;69.90
75615;DHT22;64199;48.578;-4.520;2022-10-19T17:32:11;22.20;70.00
75615;DHT22;64199;48.578;-4.520;2022-10-19T17:34:37;22.20;70.00
75615;DHT22;64199;48.578;-4.520;2022-10-19T17:37:03;22.20;70.10
75615;DHT22;64199;48.578;-4.520;2022-10-19T17:39:29;22.20;70.30
75615;DHT22;64199;48.578;-4.520;2022-10-19T17:41:55;22.20;70.30
75615;DHT22;64199;48.578;-4.520;2022-10-19T17:44:21;22.20;71.10
75615;DHT22;64199;48.578;-4.520;2022-10-19T17:46:48;22.20;70.40
75615;DHT22;64199;48.578;-4.520;2022-10-19T17:49:14;22.20;70.40
75615;DHT22;64199;48.578;-4.520;2022-10-19T17:51:41;22.30;70.50
75615;DHT22;64199;48.578;-4.520;2022-10-19T17:54:10;22.30;70.50
75615;DHT22;64199;48.578;-4.520;2022-10-19T17:56:36;22.30;70.60
75615;DHT22;64199;48.578;-4.520;2022-10-19T17:59:03;22.30;70.60
75615;DHT22;64199;48.578;-4.520;2022-10-19T18:01:29;22.30;70.60
75615;DHT22;64199;48.578;-4.520;2022-10-19T18:03:56;22.30;70.60
75615;DHT22;64199;48.578;-4.520;2022-10-19T18:06:27;22.30;70.60